Time;durP1;ratioP1;P1;durP2;ratioP2;P2;SDS_P1;SDS_P2;PMS_P1;PMS_P2;Temp;Humidity;BMP_temperature;BMP_pressure;BME280_temperature;BME280_humidity;BME280_pressure;Samples;Min_cycle;Max_cycle;Signal;HPM_P1;HPM_P2
2022/10/16 00:01:51;;;;;;;8.55;2.40;;;12.00;99.90;;;;;;4989363;28;20054;-89
2022/10/16 00:04:17;;;;;;;7.57;2.20;;;12.70;99.90;;;;;;4986964;28;20047;-88
2022/10/16 00:06:42;;;;;;;8.43;2.47;;;12.10;99.90;;;;;;4988031;28;20046;-90
2022/10/16 00:09:09;;;;;;;3.97;2.00;;;12.10;99.90;;;;;;4975156;28;20042;-89
2022/10/16 00:11:39;;;;;;;5.93;2.30;;;12.10;99.90;;;;;;4972686;28;20088;-90
2022/10/16 00:14:09;;;;;;;5.47;2.20;;;12.10;99.90;;;;;;4972481;28;20392;-88
2022/10/16 00:16:35;;;;;;;4.63;2.28;;;12.10;99.90;;;;;;4990783;28;20046;-90
2022/10/16 00:19:00;;;;;;;5.30;2.17;;;12.10;99.90;;;;;;4970629;28;20584;-90
2022/10/16 00:21:28;;;;;;;4.85;2.00;;;12.70;99.90;;;;;;4956340;28;20196;-90
2022/10/16 00:24:04;;;;;;;5.15;2.35;;;12.10;99.90;;;;;;4971814;28;20047;-91
2022/10/16 00:26:32;;;;;;;6.18;2.10;;;11.80;99.90;;;;;;4960515;28;20043;-90
2022/10/16 00:28:58;;;;;;;3.95;2.40;;;12.10;99.90;;;;;;4973602;28;20565;-88
2022/10/16 00:31:24;;;;;;;9.68;2.28;;;12.10;99.90;;;;;;4963307;28;20220;-89
2022/10/16 00:33:52;;;;;;;6.22;2.28;;;12.20;99.90;;;;;;4991640;28;20531;-90
2022/10/16 00:36:20;;;;;;;5.03;2.00;;;12.10;99.90;;;;;;4991136;28;20065;-91
2022/10/16 00:38:46;;;;;;;2.22;1.67;;;12.10;99.90;;;;;;4990523;28;20058;-91
2022/10/16 00:41:15;;;;;;;8.55;2.15;;;12.40;99.90;;;;;;4990487;28;20039;-90
2022/10/16 00:43:47;;;;;;;5.93;2.60;;;12.00;99.90;;;;;;4991215;28;20053;-90
2022/10/16 00:46:20;;;;;;;7.22;2.50;;;12.00;99.90;;;;;;4990603;28;20050;-90
2022/10/16 00:49:10;;;;;;;3.17;2.13;;;12.00;99.90;;;;;;4992102;28;20096;-91
2022/10/16 00:51:53;;;;;;;3.85;2.00;;;12.00;99.90;;;;;;4991429;28;20069;-90
2022/10/16 00:54:26;;;;;;;4.65;1.90;;;12.00;99.90;;;;;;4992363;28;20151;-90
2022/10/16 00:56:54;;;;;;;4.55;2.30;;;12.00;99.90;;;;;;4972621;28;20047;-90
2022/10/16 00:59:24;;;;;;;5.18;2.35;;;11.60;99.90;;;;;;4974005;28;20054;-90
2022/10/16 01:01:51;;;;;;;6.15;2.35;;;11.90;99.90;;;;;;4976844;28;20046;-90
2022/10/16 01:04:21;;;;;;;6.95;2.38;;;11.90;99.90;;;;;;4981904;28;20133;-89
2022/10/16 01:07:12;;;;;;;7.20;2.80;;;11.90;99.90;;;;;;4972286;28;20393;-90
2022/10/16 01:09:45;;;;;;;6.25;2.30;;;11.90;99.90;;;;;;4982310;28;20050;-91
2022/10/16 01:12:37;;;;;;;5.40;2.60;;;11.90;99.90;;;;;;4958525;28;20071;-89
2022/10/16 01:15:49;;;;;;;6.25;2.60;;;11.90;99.90;;;;;;4972491;28;20497;-88
2022/10/16 01:18:47;;;;;;;4.43;2.40;;;11.90;99.90;;;;;;4986014;28;20082;-88
2022/10/16 01:21:30;;;;;;;3.78;2.72;;;12.00;99.90;;;;;;4991356;28;20042;-90
2022/10/16 01:23:58;;;;;;;;;;;11.90;99.90;;;;;;4979046;28;20065;-91
2022/10/16 01:26:30;;;;;;;3.92;2.28;;;12.00;99.90;;;;;;4955291;28;19985;-91
2022/10/16 01:29:29;;;;;;;7.30;2.50;;;12.00;99.90;;;;;;4970946;28;20078;-89
2022/10/16 01:32:01;;;;;;;4.78;2.30;;;12.00;99.90;;;;;;4988718;28;20057;-91
2022/10/16 01:34:58;;;;;;;4.43;2.55;;;12.00;99.90;;;;;;4987489;28;20081;-90
2022/10/16 01:38:00;;;;;;;5.15;2.53;;;12.00;99.90;;;;;;4981486;28;20678;-90
2022/10/16 01:40:28;;;;;;;9.10;3.03;;;12.50;99.90;;;;;;4973941;28;20062;-91
2022/10/16 01:43:00;;;;;;;5.18;2.50;;;12.10;99.90;;;;;;4991000;28;20042;-91
2022/10/16 01:45:28;;;;;;;;;;;12.10;99.90;;;;;;4991020;28;20081;-91
2022/10/16 01:47:54;;;;;;;6.75;2.60;;;12.10;99.90;;;;;;4974897;28;20328;-89
2022/10/16 01:50:21;;;;;;;5.13;2.67;;;12.10;99.90;;;;;;4971702;28;20047;-88
2022/10/16 01:52:51;;;;;;;3.85;2.63;;;12.10;99.90;;;;;;4973941;28;20043;-91
2022/10/16 01:55:32;;;;;;;3.65;2.55;;;12.10;99.90;;;;;;4988414;28;20109;-91
2022/10/16 01:57:59;;;;;;;3.83;2.80;;;12.30;99.90;;;;;;4964272;28;20327;-91
2022/10/16 02:00:26;;;;;;;4.20;2.40;;;12.20;99.90;;;;;;4970631;28;20051;-90
2022/10/16 02:02:55;;;;;;;5.18;3.05;;;12.20;99.90;;;;;;4999322;28;20047;-91
2022/10/16 02:05:40;;;;;;;5.25;2.78;;;12.30;99.90;;;;;;4971224;28;20046;-91
2022/10/16 02:08:09;;;;;;;5.88;2.20;;;12.50;99.90;;;;;;4989575;28;20129;-90
2022/10/16 02:10:36;;;;;;;4.97;3.00;;;12.20;99.90;;;;;;4991177;28;20046;-90
2022/10/16 02:13:09;;;;;;;4.45;2.40;;;12.30;99.90;;;;;;4987422;28;20421;-91
2022/10/16 02:15:35;;;;;;;4.13;2.60;;;12.20;99.90;;;;;;4979686;28;20058;-91
2022/10/16 02:18:03;;;;;;;3.72;2.80;;;12.20;99.90;;;;;;4987654;28;20058;-90
2022/10/16 02:20:36;;;;;;;6.47;3.13;;;12.20;99.90;;;;;;4976171;28;20058;-91
2022/10/16 02:23:03;;;;;;;;;;;12.30;99.90;;;;;;4991116;28;20046;-88
2022/10/16 02:25:36;;;;;;;5.55;2.75;;;12.20;99.90;;;;;;4983547;28;20416;-89
2022/10/16 02:28:45;;;;;;;4.82;2.35;;;12.30;99.90;;;;;;4976774;28;20113;-91
2022/10/16 02:31:16;;;;;;;5.50;2.42;;;12.30;99.90;;;;;;4895869;29;20055;-90
2022/10/16 02:33:44;;;;;;;5.63;2.70;;;12.30;99.90;;;;;;4977572;28;20062;-91
2022/10/16 02:36:10;;;;;;;5.30;2.78;;;12.30;99.90;;;;;;4992066;28;20045;-90
2022/10/16 02:38:39;;;;;;;5.30;3.10;;;12.50;99.90;;;;;;4992534;28;20690;-88
2022/10/16 02:41:06;;;;;;;4.55;2.67;;;12.40;99.90;;;;;;4989371;28;20050;-91
2022/10/16 02:43:33;;;;;;;4.10;2.53;;;12.70;99.90;;;;;;4974150;28;20047;-88
2022/10/16 02:46:01;;;;;;;3.03;2.83;;;12.40;99.90;;;;;;4976131;28;20046;-89
2022/10/16 02:48:26;;;;;;;6.88;2.95;;;12.50;99.90;;;;;;4975047;28;20038;-92
2022/10/16 02:50:52;;;;;;;4.28;2.63;;;12.50;99.90;;;;;;4985155;28;20042;-90
2022/10/16 02:53:18;;;;;;;3.50;2.50;;;12.50;99.90;;;;;;4993988;28;20129;-90
2022/10/16 02:55:44;;;;;;;2.95;2.60;;;13.00;99.90;;;;;;4993165;28;20047;-91
2022/10/16 02:58:10;;;;;;;5.05;2.80;;;12.60;99.90;;;;;;4986741;28;20126;-90
2022/10/16 03:00:36;;;;;;;5.13;2.50;;;12.50;99.90;;;;;;4989981;28;20046;-91
2022/10/16 03:03:01;;;;;;;5.07;3.10;;;12.60;99.90;;;;;;4986921;28;20133;-91
2022/10/16 03:05:27;;;;;;;4.63;2.60;;;12.90;99.90;;;;;;4975323;28;20074;-91
2022/10/16 03:07:52;;;;;;;5.03;2.75;;;12.60;99.90;;;;;;4978621;28;20042;-90
2022/10/16 03:10:18;;;;;;;5.88;2.58;;;12.60;99.90;;;;;;4992339;28;20042;-91
2022/10/16 03:12:46;;;;;;;3.80;2.63;;;12.60;99.90;;;;;;4989407;28;20054;-88
2022/10/16 03:15:11;;;;;;;4.82;2.58;;;12.60;99.90;;;;;;4974774;28;20043;-89
2022/10/16 03:17:37;;;;;;;5.05;2.78;;;12.60;99.90;;;;;;4991131;28;20062;-90
2022/10/16 03:20:03;;;;;;;3.17;2.15;;;12.60;99.90;;;;;;4989843;28;20094;-91
2022/10/16 03:22:29;;;;;;;6.25;2.53;;;12.60;99.90;;;;;;4987767;28;20065;-92
2022/10/16 03:24:54;;;;;;;5.47;2.67;;;12.60;99.90;;;;;;4977632;28;20046;-90
2022/10/16 03:27:21;;;;;;;3.35;2.20;;;12.60;99.90;;;;;;4991380;28;20457;-89
2022/10/16 03:29:46;;;;;;;4.32;2.75;;;12.60;99.90;;;;;;4977535;28;20046;-89
2022/10/16 03:32:12;;;;;;;4.53;2.47;;;12.60;99.90;;;;;;4992315;28;20777;-89
2022/10/16 03:34:37;;;;;;;3.85;2.67;;;12.70;99.90;;;;;;4991884;28;20389;-91
2022/10/16 03:37:03;;;;;;;4.63;2.40;;;12.60;99.90;;;;;;4989153;28;20045;-90
2022/10/16 03:39:30;;;;;;;3.85;2.40;;;12.60;99.90;;;;;;4977750;28;20375;-91
2022/10/16 03:41:55;;;;;;;2.65;2.40;;;12.60;99.90;;;;;;4975640;28;20054;-91
2022/10/16 03:44:21;;;;;;;4.47;2.53;;;12.60;99.90;;;;;;4973695;28;20057;-91
2022/10/16 03:46:54;;;;;;;4.38;2.50;;;12.60;99.90;;;;;;4985992;28;20073;-91
2022/10/16 03:49:26;;;;;;;4.60;2.60;;;12.60;99.90;;;;;;4995015;28;20484;-89
2022/10/16 03:51:51;;;;;;;4.15;2.50;;;12.60;99.90;;;;;;4985084;28;20046;-91
2022/10/16 03:54:18;;;;;;;3.50;2.30;;;12.60;99.90;;;;;;4994464;28;20057;-89
2022/10/16 03:56:50;;;;;;;4.00;2.58;;;12.60;99.90;;;;;;4989960;28;20092;-90
2022/10/16 03:59:20;;;;;;;3.40;2.33;;;12.60;99.90;;;;;;4958384;28;20058;-90
2022/10/16 04:01:50;;;;;;;4.95;3.00;;;12.50;99.90;;;;;;4976931;28;20515;-91
2022/10/16 04:04:17;;;;;;;2.90;2.70;;;12.50;99.90;;;;;;4990755;28;20053;-90
2022/10/16 04:06:42;;;;;;;3.78;3.15;;;12.40;99.90;;;;;;4973897;28;20812;-89
2022/10/16 04:09:08;;;;;;;4.05;3.00;;;12.40;99.90;;;;;;4974614;28;20051;-88
2022/10/16 04:11:35;;;;;;;3.67;2.85;;;12.30;99.90;;;;;;4992538;28;20122;-91
2022/10/16 04:14:03;;;;;;;3.90;3.08;;;12.30;99.90;;;;;;4974623;28;20186;-91
2022/10/16 04:16:28;;;;;;;5.93;2.95;;;12.30;99.90;;;;;;4978910;28;20042;-89
2022/10/16 04:18:54;;;;;;;3.90;2.80;;;12.30;99.90;;;;;;4995396;28;20056;-87
2022/10/16 04:21:20;;;;;;;4.63;3.10;;;12.20;99.90;;;;;;4984597;28;20105;-90
2022/10/16 04:23:56;;;;;;;5.90;3.25;;;12.30;99.90;;;;;;4981823;28;20188;-91
2022/10/16 04:26:23;;;;;;;4.78;3.13;;;12.20;99.90;;;;;;4992883;28;20556;-91
2022/10/16 04:28:49;;;;;;;4.50;3.17;;;12.20;99.90;;;;;;5000756;28;20038;-87
2022/10/16 04:31:14;;;;;;;4.50;3.10;;;12.20;99.90;;;;;;4998334;28;20046;-91
2022/10/16 04:33:43;;;;;;;4.55;3.22;;;12.20;99.90;;;;;;5000399;28;20050;-91
2022/10/16 04:36:09;;;;;;;3.65;3.10;;;12.70;99.90;;;;;;4997574;28;20129;-92
2022/10/16 04:38:37;;;;;;;7.00;3.92;;;12.10;99.90;;;;;;4994313;28;20164;-89
2022/10/16 04:41:03;;;;;;;6.28;3.67;;;12.10;99.90;;;;;;4996089;28;20099;-91
2022/10/16 04:43:36;;;;;;;6.35;4.13;;;12.10;99.90;;;;;;4995411;28;20048;-91
2022/10/16 04:46:04;;;;;;;5.30;3.63;;;12.00;99.90;;;;;;4996717;28;20407;-89
2022/10/16 04:48:30;;;;;;;4.90;3.63;;;12.20;99.90;;;;;;4969829;28;20068;-90
2022/10/16 04:50:56;;;;;;;4.10;3.70;;;12.00;99.90;;;;;;4960798;28;20476;-90
2022/10/16 04:53:21;;;;;;;4.18;3.25;;;12.10;99.90;;;;;;4974803;28;20043;-90
2022/10/16 04:55:52;;;;;;;6.03;3.38;;;12.20;99.90;;;;;;4972289;28;20124;-89
2022/10/16 04:58:18;;;;;;;7.05;3.90;;;12.10;99.90;;;;;;4976571;28;20051;-91
2022/10/16 05:00:44;;;;;;;4.00;3.60;;;12.20;99.90;;;;;;4975597;28;20059;-90
2022/10/16 05:03:10;;;;;;;4.32;3.58;;;12.20;99.90;;;;;;4979124;28;20039;-89
2022/10/16 05:05:36;;;;;;;5.35;3.67;;;13.20;99.90;;;;;;4976632;28;20039;-90
2022/10/16 05:08:02;;;;;;;5.07;4.00;;;12.30;99.90;;;;;;4995375;28;20043;-90
2022/10/16 05:10:28;;;;;;;6.57;3.55;;;12.30;99.90;;;;;;4974898;28;20046;-91
2022/10/16 05:12:53;;;;;;;5.32;3.72;;;12.30;99.90;;;;;;4979121;28;20045;-91
2022/10/16 05:15:19;;;;;;;6.75;3.72;;;12.30;99.90;;;;;;4996988;28;20065;-91
2022/10/16 05:17:45;;;;;;;6.15;3.45;;;12.30;99.90;;;;;;4994275;28;20045;-91
2022/10/16 05:20:12;;;;;;;5.75;3.60;;;12.30;99.90;;;;;;4989506;28;20047;-91
2022/10/16 05:22:38;;;;;;;5.93;3.63;;;12.80;99.90;;;;;;4968830;28;20043;-92
2022/10/16 05:25:11;;;;;;;5.00;3.65;;;12.30;99.90;;;;;;4978951;28;20058;-91
2022/10/16 05:27:36;;;;;;;7.10;3.88;;;12.70;99.90;;;;;;4976384;28;20097;-90
2022/10/16 05:30:02;;;;;;;4.20;3.70;;;11.90;99.90;;;;;;4972252;28;20038;-89
2022/10/16 05:32:29;;;;;;;5.88;3.65;;;12.20;99.90;;;;;;4983233;28;20049;-91
2022/10/16 05:34:59;;;;;;;4.53;3.75;;;13.20;99.90;;;;;;4990445;28;20172;-89
2022/10/16 05:37:27;;;;;;;4.97;3.70;;;12.20;99.90;;;;;;4979416;28;20425;-91
2022/10/16 05:39:54;;;;;;;7.72;4.05;;;12.20;99.90;;;;;;4958780;28;20049;-91
2022/10/16 05:42:19;;;;;;;4.95;3.33;;;12.20;99.90;;;;;;4983166;28;20101;-91
2022/10/16 05:44:48;;;;;;;6.88;3.97;;;12.20;99.90;;;;;;4993741;28;20046;-90
2022/10/16 05:47:14;;;;;;;6.18;3.40;;;12.20;99.90;;;;;;4994462;28;20078;-91
2022/10/16 05:49:40;;;;;;;6.35;4.22;;;12.20;99.90;;;;;;4983658;28;20074;-93
2022/10/16 05:52:05;;;;;;;5.10;3.63;;;12.20;99.90;;;;;;4990936;28;20054;-91
2022/10/16 05:54:31;;;;;;;4.88;3.63;;;12.20;99.90;;;;;;4990169;28;20082;-93
2022/10/16 05:57:02;;;;;;;4.28;3.65;;;12.20;99.90;;;;;;4986522;28;20154;-92
2022/10/16 05:59:28;;;;;;;5.15;3.55;;;12.40;99.90;;;;;;4973473;28;20066;-93
2022/10/16 06:01:53;;;;;;;4.57;3.63;;;12.20;99.90;;;;;;4962510;28;20055;-92
2022/10/16 06:04:19;;;;;;;5.60;3.67;;;12.20;99.90;;;;;;4991769;28;20054;-90
2022/10/16 06:06:44;;;;;;;4.22;3.53;;;12.20;99.90;;;;;;4988805;28;20057;-89
2022/10/16 06:09:10;;;;;;;4.68;3.20;;;12.20;99.90;;;;;;4989713;28;20042;-91
2022/10/16 06:11:36;;;;;;;3.55;3.25;;;12.20;99.90;;;;;;4992120;28;20054;-91
2022/10/16 06:14:06;;;;;;;3.92;3.15;;;12.30;99.90;;;;;;4993409;28;20046;-89
2022/10/16 06:16:35;;;;;;;3.70;3.17;;;12.30;99.90;;;;;;4993564;28;20047;-89
2022/10/16 06:19:01;;;;;;;5.10;3.00;;;13.00;99.90;;;;;;4987173;28;20057;-91
2022/10/16 06:21:28;;;;;;;3.20;2.90;;;12.80;99.90;;;;;;4990556;28;20046;-92
2022/10/16 06:23:57;;;;;;;3.55;2.90;;;12.30;99.90;;;;;;4989858;28;20050;-91
2022/10/16 06:26:26;;;;;;;4.70;2.90;;;12.30;99.90;;;;;;4978630;28;20046;-88
2022/10/16 06:28:55;;;;;;;4.47;3.00;;;12.40;99.90;;;;;;4993658;28;20515;-89
2022/10/16 06:31:21;;;;;;;4.07;2.92;;;12.30;99.90;;;;;;4985520;28;20098;-90
2022/10/16 06:33:50;;;;;;;7.03;3.08;;;12.30;99.90;;;;;;4962110;28;20184;-89
2022/10/16 06:36:17;;;;;;;4.43;2.80;;;12.40;99.90;;;;;;4974355;28;20444;-90
2022/10/16 06:38:44;;;;;;;3.15;2.53;;;12.40;99.90;;;;;;4991513;28;20046;-88
2022/10/16 06:41:12;;;;;;;5.78;2.85;;;12.10;99.90;;;;;;4990909;28;20158;-90
2022/10/16 06:43:38;;;;;;;2.90;2.55;;;12.30;99.90;;;;;;4992762;28;20038;-91
2022/10/16 06:46:07;;;;;;;2.70;2.50;;;11.80;99.90;;;;;;4973397;28;20104;-91
2022/10/16 06:48:33;;;;;;;6.35;2.80;;;12.50;99.90;;;;;;4974121;28;20034;-91
2022/10/16 06:51:06;;;;;;;4.45;2.83;;;12.60;99.90;;;;;;4974848;28;20061;-89
2022/10/16 06:53:36;;;;;;;3.63;2.30;;;12.50;99.90;;;;;;5003852;28;20509;-89
2022/10/16 06:56:13;;;;;;;2.95;2.58;;;12.60;99.90;;;;;;4972903;28;20066;-90
2022/10/16 06:58:39;;;;;;;3.92;2.40;;;12.60;99.90;;;;;;4953187;28;20142;-89
2022/10/16 07:01:05;;;;;;;5.47;3.00;;;12.60;99.90;;;;;;4953545;28;20137;-90
2022/10/16 07:03:31;;;;;;;3.20;2.33;;;12.60;99.90;;;;;;4953812;28;20054;-89
2022/10/16 07:06:00;;;;;;;4.10;2.50;;;12.60;99.90;;;;;;4970191;28;20094;-87
2022/10/16 07:08:26;;;;;;;4.07;2.60;;;12.60;99.90;;;;;;4969505;28;20069;-91
2022/10/16 07:11:02;;;;;;;3.60;2.30;;;13.20;99.90;;;;;;4956938;28;20489;-90
2022/10/16 07:13:27;;;;;;;7.13;2.53;;;12.70;99.90;;;;;;4991564;28;20050;-91
2022/10/16 07:15:53;;;;;;;5.30;2.50;;;12.70;99.90;;;;;;4991058;28;20111;-91
2022/10/16 07:18:19;;;;;;;6.97;3.10;;;12.70;99.90;;;;;;4977456;28;20134;-90
2022/10/16 07:20:44;;;;;;;4.07;2.20;;;12.80;99.90;;;;;;4955040;28;20188;-90
2022/10/16 07:23:10;;;;;;;3.10;2.17;;;12.80;99.90;;;;;;4954510;28;20058;-90
2022/10/16 07:25:35;;;;;;;5.03;2.20;;;12.80;99.90;;;;;;4971635;28;20047;-90
2022/10/16 07:28:01;;;;;;;3.67;2.45;;;12.90;99.90;;;;;;4959824;28;20042;-90
2022/10/16 07:30:26;;;;;;;6.75;2.45;;;12.90;99.90;;;;;;4973981;28;20526;-90
2022/10/16 07:32:52;;;;;;;3.25;2.40;;;13.00;99.90;;;;;;4990259;28;20096;-88
2022/10/16 07:35:17;;;;;;;2.95;2.05;;;13.10;99.90;;;;;;4990013;28;20477;-90
2022/10/16 07:37:46;;;;;;;4.63;2.28;;;13.10;99.90;;;;;;4974261;28;20507;-89
2022/10/16 07:40:12;;;;;;;4.55;2.17;;;13.20;99.90;;;;;;4971614;28;20042;-90
2022/10/16 07:42:38;;;;;;;5.05;2.45;;;13.20;99.90;;;;;;4973938;28;20416;-90
2022/10/16 07:45:04;;;;;;;4.22;2.13;;;14.00;99.90;;;;;;4978858;28;20387;-90
2022/10/16 07:47:30;;;;;;;3.25;1.92;;;13.20;99.90;;;;;;4990028;28;20046;-89
2022/10/16 07:49:55;;;;;;;4.32;2.13;;;13.20;99.90;;;;;;4989210;28;20361;-88
2022/10/16 07:52:21;;;;;;;3.60;2.03;;;13.20;99.90;;;;;;4989452;28;20078;-87
2022/10/16 07:54:46;;;;;;;3.75;2.00;;;13.30;99.90;;;;;;4989479;28;20398;-87
2022/10/16 07:57:18;;;;;;;4.32;2.08;;;13.30;99.90;;;;;;4988521;28;20116;-88
2022/10/16 07:59:44;;;;;;;5.07;1.77;;;13.30;99.90;;;;;;4988538;28;20054;-88
2022/10/16 08:02:10;;;;;;;3.67;1.73;;;13.40;99.90;;;;;;4973075;28;20075;-88
2022/10/16 08:04:35;;;;;;;4.55;1.80;;;13.40;99.90;;;;;;4973420;28;20047;-88
2022/10/16 08:07:01;;;;;;;4.07;1.92;;;13.40;99.90;;;;;;4989279;28;20042;-88
2022/10/16 08:09:26;;;;;;;4.05;2.30;;;13.50;99.90;;;;;;4989198;28;20057;-87
2022/10/16 08:11:52;;;;;;;5.32;1.70;;;13.50;99.90;;;;;;4970256;28;20035;-87
2022/10/16 08:14:18;;;;;;;3.90;1.38;;;14.60;99.90;;;;;;4969449;28;20581;-84
2022/10/16 08:16:43;;;;;;;4.32;1.70;;;13.60;99.90;;;;;;4969942;28;20050;-85
2022/10/16 08:19:09;;;;;;;4.13;1.40;;;13.70;99.90;;;;;;4953121;28;20041;-84
2022/10/16 08:21:34;;;;;;;3.65;1.00;;;13.80;99.90;;;;;;4969084;28;20493;-87
2022/10/16 08:24:00;;;;;;;2.42;1.20;;;13.80;99.90;;;;;;4985209;28;20093;-88
2022/10/16 08:26:27;;;;;;;2.97;1.35;;;13.90;99.90;;;;;;4953160;28;20428;-87
2022/10/16 08:28:53;;;;;;;5.03;1.20;;;13.90;99.90;;;;;;4969307;28;20552;-87
2022/10/16 08:31:19;;;;;;;4.00;1.38;;;13.90;99.90;;;;;;4971185;28;20129;-87
2022/10/16 08:33:46;;;;;;;3.08;1.20;;;14.00;99.90;;;;;;4970069;28;20039;-88
2022/10/16 08:36:13;;;;;;;3.13;1.20;;;14.00;99.90;;;;;;4970295;28;20531;-87
2022/10/16 08:38:39;;;;;;;2.47;1.20;;;14.40;99.90;;;;;;4970326;28;20078;-88
2022/10/16 08:41:37;;;;;;;2.03;1.38;;;14.00;99.90;;;;;;4969798;28;20380;-87
2022/10/16 08:44:18;;;;;;;4.63;1.60;;;14.10;99.90;;;;;;4968862;28;20123;-88
2022/10/16 08:47:17;;;;;;;3.38;1.77;;;14.20;99.90;;;;;;4969734;28;20061;-88
2022/10/16 08:49:59;;;;;;;3.88;1.98;;;14.20;99.90;;;;;;4969391;28;20051;-88
2022/10/16 08:52:30;;;;;;;2.75;2.10;;;14.20;99.90;;;;;;4969176;28;20054;-88
2022/10/16 08:54:56;;;;;;;3.80;1.93;;;14.20;99.90;;;;;;4968853;28;20589;-88
2022/10/16 08:57:24;;;;;;;4.65;2.15;;;14.30;99.90;;;;;;4968355;28;20043;-89
2022/10/16 08:59:54;;;;;;;5.20;2.03;;;14.40;99.90;;;;;;4952731;28;20051;-89
2022/10/16 09:02:52;;;;;;;4.50;2.05;;;14.60;99.90;;;;;;4954557;28;20082;-87
2022/10/16 09:05:18;;;;;;;5.07;2.55;;;14.80;99.90;;;;;;4970591;28;20055;-88
2022/10/16 09:07:47;;;;;;;3.95;1.90;;;14.90;99.90;;;;;;4984803;28;20396;-88
2022/10/16 09:10:38;;;;;;;3.63;1.70;;;15.00;99.90;;;;;;4968456;28;20488;-88
2022/10/16 09:13:41;;;;;;;3.40;1.95;;;15.00;99.90;;;;;;4979157;28;20489;-88
2022/10/16 09:16:26;;;;;;;5.45;1.80;;;15.00;99.90;;;;;;4988363;28;20047;-88
2022/10/16 09:18:58;;;;;;;3.97;1.77;;;15.10;99.90;;;;;;4987395;28;20042;-89
2022/10/16 09:21:35;;;;;;;5.03;2.03;;;15.20;99.90;;;;;;4971499;28;20077;-88
2022/10/16 09:24:13;;;;;;;7.55;1.85;;;15.20;99.90;;;;;;4988070;28;20050;-88
2022/10/16 09:26:38;;;;;;;3.35;1.50;;;15.20;99.90;;;;;;4987243;28;20054;-88
2022/10/16 09:29:04;;;;;;;6.05;1.90;;;15.30;99.90;;;;;;4980827;28;20039;-89
2022/10/16 09:31:30;;;;;;;5.35;1.95;;;16.30;99.90;;;;;;4969125;28;20046;-87
2022/10/16 09:33:59;;;;;;;6.30;1.90;;;15.40;99.90;;;;;;4968773;28;20046;-89
2022/10/16 09:36:28;;;;;;;5.82;1.70;;;15.50;99.90;;;;;;4968119;28;20049;-89
2022/10/16 09:39:20;;;;;;;5.25;2.08;;;15.60;99.90;;;;;;4968746;28;20055;-89
2022/10/16 09:41:46;;;;;;;6.43;2.13;;;15.60;99.90;;;;;;4964701;28;20506;-87
2022/10/16 09:44:25;;;;;;;7.38;1.75;;;15.80;99.90;;;;;;4968382;28;20046;-88
2022/10/16 09:47:05;;;;;;;5.47;2.15;;;15.80;99.90;;;;;;4972208;28;20576;-88
2022/10/16 09:49:30;;;;;;;4.30;1.90;;;15.80;99.90;;;;;;4956169;28;20162;-89
2022/10/16 09:52:11;;;;;;;5.85;1.70;;;16.00;99.90;;;;;;4973436;28;20203;-88
2022/10/16 09:54:37;;;;;;;7.10;1.40;;;15.90;99.90;;;;;;4976121;28;20054;-88
2022/10/16 09:57:13;;;;;;;6.05;1.80;;;15.90;99.90;;;;;;4955612;28;20420;-88
2022/10/16 09:59:47;;;;;;;5.75;1.50;;;16.00;99.90;;;;;;4972193;28;20051;-87
2022/10/16 10:02:16;;;;;;;7.78;1.40;;;16.20;99.90;;;;;;4971200;28;20105;-87
2022/10/16 10:04:54;;;;;;;7.65;1.98;;;16.20;99.90;;;;;;4972131;28;20250;-88
2022/10/16 10:07:32;;;;;;;8.73;1.50;;;16.20;99.90;;;;;;4971963;28;20166;-87
2022/10/16 10:09:58;;;;;;;6.45;1.80;;;16.30;99.90;;;;;;4985993;28;20050;-88
2022/10/16 10:12:26;;;;;;;4.90;1.50;;;16.40;99.90;;;;;;4984144;28;20057;-90
2022/10/16 10:14:55;;;;;;;6.60;1.80;;;16.50;99.90;;;;;;4991357;28;20157;-88
2022/10/16 10:17:28;;;;;;;9.90;1.75;;;17.20;99.90;;;;;;4975853;28;20038;-86
2022/10/16 10:19:55;;;;;;;5.97;1.60;;;16.50;99.90;;;;;;4981544;28;20126;-90
2022/10/16 10:22:30;;;;;;;6.15;1.77;;;16.50;99.90;;;;;;4972567;28;20054;-89
2022/10/16 10:25:02;;;;;;;5.25;1.45;;;16.60;99.90;;;;;;4974181;28;20415;-89
2022/10/16 10:27:53;;;;;;;7.65;1.88;;;16.80;99.90;;;;;;4957009;28;20101;-89
2022/10/16 10:30:22;;;;;;;5.97;1.67;;;16.80;99.90;;;;;;4963097;28;20121;-89
2022/10/16 10:32:51;;;;;;;6.65;1.77;;;16.80;99.90;;;;;;4974253;28;20077;-89
2022/10/16 10:35:25;;;;;;;9.73;1.52;;;17.20;99.90;;;;;;4971717;28;20164;-91
2022/10/16 10:38:06;;;;;;;9.63;2.00;;;16.70;99.90;;;;;;4981796;28;20085;-92
2022/10/16 10:40:56;;;;;;;5.05;1.75;;;16.70;99.90;;;;;;4979729;28;20050;-90
2022/10/16 10:43:44;;;;;;;7.05;2.05;;;16.80;99.90;;;;;;4977974;28;20050;-90
2022/10/16 10:46:40;;;;;;;7.05;1.75;;;16.80;99.90;;;;;;4994765;28;20137;-88
2022/10/16 10:49:14;;;;;;;6.85;1.88;;;16.80;99.90;;;;;;4977902;28;20742;-89
2022/10/16 10:51:50;;;;;;;6.38;1.70;;;16.60;99.90;;;;;;4983263;28;20108;-91
2022/10/16 10:54:23;;;;;;;8.25;1.88;;;16.70;99.90;;;;;;4987785;28;20092;-90
2022/10/16 10:57:10;;;;;;;8.15;2.38;;;16.70;99.90;;;;;;4986760;28;20058;-90
2022/10/16 10:59:54;;;;;;;4.82;1.58;;;16.70;99.90;;;;;;4969334;28;20109;-89
2022/10/16 11:02:40;;;;;;;7.88;1.80;;;17.30;99.90;;;;;;4986218;28;20132;-91
2022/10/16 11:05:24;;;;;;;7.75;1.60;;;17.00;99.90;;;;;;5003909;28;20053;-90
2022/10/16 11:08:01;;;;;;;6.75;1.65;;;17.10;99.90;;;;;;4982708;28;20093;-89
2022/10/16 11:10:37;;;;;;;8.45;2.20;;;17.00;99.90;;;;;;4974080;28;20038;-90
2022/10/16 11:13:19;;;;;;;9.05;2.00;;;16.90;99.90;;;;;;5001076;28;20124;-90
2022/10/16 11:15:48;;;;;;;6.83;1.60;;;17.00;99.90;;;;;;4997420;28;20042;-86
2022/10/16 11:18:24;;;;;;;4.35;1.80;;;17.10;99.90;;;;;;4997392;28;20129;-86
2022/10/16 11:20:57;;;;;;;7.70;2.03;;;17.10;99.90;;;;;;4997995;28;20440;-90
2022/10/16 11:23:38;;;;;;;5.20;1.40;;;17.10;99.90;;;;;;4973133;28;20213;-85
2022/10/16 11:26:09;;;;;;;7.00;1.50;;;17.00;99.90;;;;;;4975990;28;20045;-91
2022/10/16 11:28:56;;;;;;;5.25;1.42;;;17.10;99.90;;;;;;4974697;28;20039;-91
2022/10/16 11:31:36;;;;;;;8.48;2.00;;;17.10;99.90;;;;;;4981108;28;20530;-90
2022/10/16 11:34:16;;;;;;;6.22;1.80;;;17.20;99.90;;;;;;4994373;28;20162;-92
2022/10/16 11:36:52;;;;;;;5.50;1.40;;;17.10;99.90;;;;;;4976074;28;20050;-92
2022/10/16 11:39:23;;;;;;;6.68;1.77;;;17.00;99.90;;;;;;4992474;28;20046;-90
2022/10/16 11:41:52;;;;;;;7.10;1.73;;;16.80;99.90;;;;;;4976986;28;20127;-91
2022/10/16 11:44:33;;;;;;;4.82;1.50;;;16.60;99.90;;;;;;4991684;28;20777;-89
2022/10/16 11:47:01;;;;;;;6.72;1.45;;;16.50;99.90;;;;;;4975700;28;20452;-85
2022/10/16 11:49:31;;;;;;;6.47;1.70;;;16.40;99.90;;;;;;4992116;28;20509;-90
2022/10/16 11:52:07;;;;;;;8.10;1.58;;;16.40;99.90;;;;;;4971711;28;20046;-90
2022/10/16 11:54:51;;;;;;;5.47;1.60;;;16.40;99.90;;;;;;4990997;28;20042;-89
2022/10/16 11:57:23;;;;;;;9.23;1.80;;;16.50;99.90;;;;;;4990020;28;20600;-90
2022/10/16 12:00:01;;;;;;;6.82;1.63;;;16.70;99.90;;;;;;4977883;28;20055;-88
2022/10/16 12:02:31;;;;;;;6.30;1.83;;;16.90;99.90;;;;;;4964157;28;20058;-89
2022/10/16 12:05:21;;;;;;;5.32;1.77;;;17.10;99.90;;;;;;4978953;28;20050;-90
2022/10/16 12:08:02;;;;;;;9.35;1.95;;;17.20;99.90;;;;;;4962143;28;20054;-90
2022/10/16 12:10:31;;;;;;;10.82;2.45;;;17.30;99.90;;;;;;4975163;28;20047;-92
2022/10/16 12:12:57;;;;;;;8.52;2.55;;;17.30;99.90;;;;;;4957949;28;20042;-91
2022/10/16 12:15:25;;;;;;;5.00;1.67;;;17.40;99.90;;;;;;4990009;28;20081;-86
2022/10/16 12:17:51;;;;;;;7.45;1.92;;;17.50;99.90;;;;;;4974329;28;20052;-89
2022/10/16 12:20:17;;;;;;;4.10;1.40;;;17.70;99.90;;;;;;4983719;28;20076;-88
2022/10/16 12:23:05;;;;;;;8.23;1.80;;;17.60;99.90;;;;;;4974886;28;20058;-88
2022/10/16 12:25:35;;;;;;;8.05;1.98;;;17.50;99.90;;;;;;4985104;28;20046;-88
2022/10/16 12:28:17;;;;;;;6.35;1.50;;;17.40;99.90;;;;;;4987314;28;20049;-90
2022/10/16 12:30:52;;;;;;;7.70;1.67;;;17.40;99.90;;;;;;4969423;28;20046;-90
2022/10/16 12:33:23;;;;;;;6.78;1.55;;;18.00;99.90;;;;;;4988970;28;20457;-90
2022/10/16 12:35:50;;;;;;;6.55;1.50;;;17.50;99.90;;;;;;4987842;28;20042;-89
2022/10/16 12:38:25;;;;;;;8.02;1.33;;;17.50;99.90;;;;;;4989877;28;20068;-88
2022/10/16 12:41:08;;;;;;;5.20;1.45;;;17.50;99.90;;;;;;4967867;28;20169;-88
2022/10/16 12:43:42;;;;;;;7.30;1.75;;;17.50;99.90;;;;;;4989343;28;20129;-90
2022/10/16 12:46:07;;;;;;;10.82;1.83;;;17.50;99.90;;;;;;4984227;28;20085;-90
2022/10/16 12:48:33;;;;;;;6.68;1.90;;;18.10;99.90;;;;;;4983834;28;20136;-89
2022/10/16 12:51:22;;;;;;;7.68;1.65;;;17.70;99.90;;;;;;4975990;28;20406;-89
2022/10/16 12:53:59;;;;;;;7.43;1.70;;;17.60;99.90;;;;;;4960669;28;20090;-87
2022/10/16 12:56:54;;;;;;;4.95;1.63;;;17.50;99.90;;;;;;4954466;28;20039;-89
2022/10/16 12:59:42;;;;;;;7.22;1.83;;;17.60;99.90;;;;;;4963712;28;20056;-90
2022/10/16 13:02:58;;;;;;;7.38;1.48;;;17.60;99.90;;;;;;4967281;28;20065;-89
2022/10/16 13:05:34;;;;;;;8.15;1.98;;;17.60;99.90;;;;;;4953949;28;20128;-90
2022/10/16 13:08:39;;;;;;;6.50;1.63;;;17.60;99.90;;;;;;4973787;28;20052;-88
2022/10/16 13:11:27;;;;;;;6.25;1.77;;;17.80;99.90;;;;;;4942833;28;20134;-90